sensor_id;sensor_type;location;lat;lon;timestamp;P1;durP1;ratioP1;P2;durP2;ratioP2
40284;SDS011;25997;50.214;19.354;2022-10-22T00:00:33;18.40;;;16.27;;
40284;SDS011;25997;50.214;19.354;2022-10-22T00:03:36;21.35;;;16.40;;
40284;SDS011;25997;50.214;19.354;2022-10-22T00:06:38;20.85;;;17.42;;
40284;SDS011;25997;50.214;19.354;2022-10-22T00:09:43;19.27;;;17.08;;
40284;SDS011;25997;50.214;19.354;2022-10-22T00:12:46;20.08;;;16.35;;
40284;SDS011;25997;50.214;19.354;2022-10-22T00:15:49;23.25;;;17.42;;
40284;SDS011;25997;50.214;19.354;2022-10-22T00:18:51;23.58;;;18.80;;
40284;SDS011;25997;50.214;19.354;2022-10-22T00:21:54;24.52;;;20.30;;
40284;SDS011;25997;50.214;19.354;2022-10-22T00:24:59;22.38;;;19.15;;
40284;SDS011;25997;50.214;19.354;2022-10-22T00:28:02;23.90;;;20.38;;
40284;SDS011;25997;50.214;19.354;2022-10-22T00:31:04;22.85;;;20.25;;
40284;SDS011;25997;50.214;19.354;2022-10-22T00:34:07;25.10;;;21.67;;
40284;SDS011;25997;50.214;19.354;2022-10-22T00:37:10;24.35;;;21.38;;
40284;SDS011;25997;50.214;19.354;2022-10-22T00:40:14;20.38;;;17.60;;
40284;SDS011;25997;50.214;19.354;2022-10-22T00:43:17;21.73;;;17.63;;
40284;SDS011;25997;50.214;19.354;2022-10-22T00:46:20;21.33;;;17.48;;
40284;SDS011;25997;50.214;19.354;2022-10-22T00:49:23;19.67;;;17.42;;
40284;SDS011;25997;50.214;19.354;2022-10-22T00:52:25;24.55;;;20.45;;
40284;SDS011;25997;50.214;19.354;2022-10-22T00:55:30;20.67;;;18.48;;
40284;SDS011;25997;50.214;19.354;2022-10-22T00:58:35;23.85;;;19.48;;
40284;SDS011;25997;50.214;19.354;2022-10-22T01:01:41;25.50;;;21.15;;
40284;SDS011;25997;50.214;19.354;2022-10-22T01:04:44;20.95;;;18.20;;
40284;SDS011;25997;50.214;19.354;2022-10-22T01:07:47;20.05;;;17.80;;
40284;SDS011;25997;50.214;19.354;2022-10-22T01:10:56;22.70;;;18.98;;
40284;SDS011;25997;50.214;19.354;2022-10-22T01:14:11;22.50;;;18.88;;
40284;SDS011;25997;50.214;19.354;2022-10-22T01:17:20;25.38;;;20.73;;
40284;SDS011;25997;50.214;19.354;2022-10-22T01:20:40;23.45;;;20.52;;
40284;SDS011;25997;50.214;19.354;2022-10-22T01:27:44;29.80;;;23.70;;
40284;SDS011;25997;50.214;19.354;2022-10-22T01:30:58;25.40;;;20.50;;
40284;SDS011;25997;50.214;19.354;2022-10-22T01:34:02;25.45;;;20.13;;
40284;SDS011;25997;50.214;19.354;2022-10-22T01:37:07;22.58;;;20.20;;
40284;SDS011;25997;50.214;19.354;2022-10-22T01:40:13;21.52;;;18.63;;
40284;SDS011;25997;50.214;19.354;2022-10-22T01:43:17;24.00;;;17.88;;
40284;SDS011;25997;50.214;19.354;2022-10-22T01:46:21;21.52;;;18.27;;
40284;SDS011;25997;50.214;19.354;2022-10-22T01:49:27;20.95;;;17.98;;
40284;SDS011;25997;50.214;19.354;2022-10-22T01:52:51;22.38;;;17.95;;
40284;SDS011;25997;50.214;19.354;2022-10-22T01:56:10;25.30;;;19.92;;
40284;SDS011;25997;50.214;19.354;2022-10-22T01:59:31;23.40;;;18.52;;
40284;SDS011;25997;50.214;19.354;2022-10-22T02:02:42;22.35;;;17.08;;
40284;SDS011;25997;50.214;19.354;2022-10-22T02:08:54;19.92;;;16.35;;
40284;SDS011;25997;50.214;19.354;2022-10-22T02:12:00;23.02;;;17.27;;
40284;SDS011;25997;50.214;19.354;2022-10-22T02:15:05;20.17;;;17.83;;
40284;SDS011;25997;50.214;19.354;2022-10-22T02:18:12;24.55;;;18.50;;
40284;SDS011;25997;50.214;19.354;2022-10-22T02:21:16;19.63;;;17.40;;
40284;SDS011;25997;50.214;19.354;2022-10-22T02:24:19;25.30;;;19.13;;
40284;SDS011;25997;50.214;19.354;2022-10-22T02:27:23;23.70;;;17.88;;
40284;SDS011;25997;50.214;19.354;2022-10-22T02:30:31;29.02;;;19.40;;
40284;SDS011;25997;50.214;19.354;2022-10-22T02:33:37;21.63;;;17.77;;
40284;SDS011;25997;50.214;19.354;2022-10-22T02:36:44;21.50;;;17.92;;
40284;SDS011;25997;50.214;19.354;2022-10-22T02:39:48;21.48;;;17.30;;
40284;SDS011;25997;50.214;19.354;2022-10-22T02:42:52;19.58;;;16.83;;
40284;SDS011;25997;50.214;19.354;2022-10-22T02:45:55;24.42;;;18.73;;
40284;SDS011;25997;50.214;19.354;2022-10-22T02:48:59;22.85;;;19.70;;
40284;SDS011;25997;50.214;19.354;2022-10-22T02:52:02;20.55;;;17.52;;
40284;SDS011;25997;50.214;19.354;2022-10-22T02:55:04;20.13;;;17.95;;
40284;SDS011;25997;50.214;19.354;2022-10-22T02:58:07;19.70;;;17.60;;
40284;SDS011;25997;50.214;19.354;2022-10-22T03:01:10;20.98;;;18.40;;
40284;SDS011;25997;50.214;19.354;2022-10-22T03:04:14;23.80;;;18.65;;
40284;SDS011;25997;50.214;19.354;2022-10-22T03:07:17;20.45;;;18.08;;
40284;SDS011;25997;50.214;19.354;2022-10-22T03:10:19;21.10;;;18.42;;
40284;SDS011;25997;50.214;19.354;2022-10-22T03:13:22;23.77;;;17.88;;
40284;SDS011;25997;50.214;19.354;2022-10-22T03:16:24;24.50;;;18.92;;
40284;SDS011;25997;50.214;19.354;2022-10-22T03:19:28;25.05;;;19.10;;
40284;SDS011;25997;50.214;19.354;2022-10-22T03:22:31;23.92;;;18.50;;
40284;SDS011;25997;50.214;19.354;2022-10-22T03:25:35;26.80;;;21.75;;
40284;SDS011;25997;50.214;19.354;2022-10-22T03:28:43;21.65;;;18.55;;
40284;SDS011;25997;50.214;19.354;2022-10-22T03:31:48;21.95;;;18.05;;
40284;SDS011;25997;50.214;19.354;2022-10-22T03:34:51;20.02;;;17.70;;
40284;SDS011;25997;50.214;19.354;2022-10-22T03:37:54;21.85;;;18.92;;
40284;SDS011;25997;50.214;19.354;2022-10-22T03:40:57;19.33;;;17.33;;
40284;SDS011;25997;50.214;19.354;2022-10-22T03:43:59;19.55;;;17.50;;
40284;SDS011;25997;50.214;19.354;2022-10-22T03:47:04;35.30;;;23.35;;
40284;SDS011;25997;50.214;19.354;2022-10-22T03:50:08;31.92;;;25.30;;
40284;SDS011;25997;50.214;19.354;2022-10-22T03:53:11;23.67;;;19.63;;
40284;SDS011;25997;50.214;19.354;2022-10-22T03:56:14;24.10;;;19.00;;
40284;SDS011;25997;50.214;19.354;2022-10-22T03:59:16;26.13;;;18.90;;
40284;SDS011;25997;50.214;19.354;2022-10-22T04:02:19;22.17;;;19.13;;
40284;SDS011;25997;50.214;19.354;2022-10-22T04:05:23;23.58;;;19.95;;
40284;SDS011;25997;50.214;19.354;2022-10-22T04:08:25;25.67;;;20.83;;
40284;SDS011;25997;50.214;19.354;2022-10-22T04:11:27;27.58;;;20.73;;
40284;SDS011;25997;50.214;19.354;2022-10-22T04:14:30;28.65;;;22.00;;
40284;SDS011;25997;50.214;19.354;2022-10-22T04:17:33;25.80;;;20.15;;
40284;SDS011;25997;50.214;19.354;2022-10-22T04:20:38;26.60;;;20.75;;
40284;SDS011;25997;50.214;19.354;2022-10-22T04:23:43;24.80;;;21.13;;
40284;SDS011;25997;50.214;19.354;2022-10-22T04:26:46;24.63;;;20.38;;
40284;SDS011;25997;50.214;19.354;2022-10-22T04:29:49;26.55;;;21.23;;
40284;SDS011;25997;50.214;19.354;2022-10-22T04:32:51;23.63;;;21.08;;
40284;SDS011;25997;50.214;19.354;2022-10-22T04:35:55;24.67;;;21.15;;
40284;SDS011;25997;50.214;19.354;2022-10-22T04:38:58;34.42;;;28.35;;
40284;SDS011;25997;50.214;19.354;2022-10-22T04:42:02;27.13;;;24.35;;
40284;SDS011;25997;50.214;19.354;2022-10-22T04:45:05;30.50;;;25.17;;
40284;SDS011;25997;50.214;19.354;2022-10-22T04:48:08;29.27;;;23.88;;
40284;SDS011;25997;50.214;19.354;2022-10-22T04:51:12;25.67;;;23.05;;
40284;SDS011;25997;50.214;19.354;2022-10-22T04:54:16;25.20;;;21.90;;
40284;SDS011;25997;50.214;19.354;2022-10-22T04:57:18;27.33;;;21.73;;
40284;SDS011;25997;50.214;19.354;2022-10-22T05:00:21;27.50;;;23.27;;
40284;SDS011;25997;50.214;19.354;2022-10-22T05:03:23;26.05;;;22.52;;
40284;SDS011;25997;50.214;19.354;2022-10-22T05:06:27;24.83;;;20.65;;
40284;SDS011;25997;50.214;19.354;2022-10-22T05:09:30;30.02;;;23.25;;
40284;SDS011;25997;50.214;19.354;2022-10-22T05:12:33;27.77;;;22.75;;
40284;SDS011;25997;50.214;19.354;2022-10-22T05:15:36;25.60;;;22.65;;
40284;SDS011;25997;50.214;19.354;2022-10-22T05:18:39;27.00;;;23.10;;
40284;SDS011;25997;50.214;19.354;2022-10-22T05:21:44;24.25;;;21.42;;
40284;SDS011;25997;50.214;19.354;2022-10-22T05:24:46;26.00;;;22.77;;
40284;SDS011;25997;50.214;19.354;2022-10-22T05:27:49;25.83;;;21.75;;
40284;SDS011;25997;50.214;19.354;2022-10-22T05:30:52;24.63;;;21.85;;
40284;SDS011;25997;50.214;19.354;2022-10-22T05:33:55;26.98;;;24.17;;
40284;SDS011;25997;50.214;19.354;2022-10-22T05:36:59;29.15;;;23.33;;
40284;SDS011;25997;50.214;19.354;2022-10-22T05:40:01;24.85;;;22.15;;
40284;SDS011;25997;50.214;19.354;2022-10-22T05:43:04;29.10;;;24.48;;
40284;SDS011;25997;50.214;19.354;2022-10-22T05:46:07;29.52;;;22.63;;
40284;SDS011;25997;50.214;19.354;2022-10-22T05:49:12;29.33;;;25.95;;
40284;SDS011;25997;50.214;19.354;2022-10-22T05:52:17;30.55;;;23.55;;
40284;SDS011;25997;50.214;19.354;2022-10-22T05:55:19;23.73;;;21.08;;
40284;SDS011;25997;50.214;19.354;2022-10-22T05:58:22;30.80;;;27.35;;
40284;SDS011;25997;50.214;19.354;2022-10-22T06:01:25;35.53;;;31.77;;
40284;SDS011;25997;50.214;19.354;2022-10-22T06:04:29;123.38;;;105.15;;
40284;SDS011;25997;50.214;19.354;2022-10-22T06:07:33;180.07;;;139.57;;
40284;SDS011;25997;50.214;19.354;2022-10-22T06:10:36;49.45;;;42.15;;
40284;SDS011;25997;50.214;19.354;2022-10-22T06:13:43;33.67;;;26.63;;
40284;SDS011;25997;50.214;19.354;2022-10-22T06:16:45;30.00;;;26.75;;
40284;SDS011;25997;50.214;19.354;2022-10-22T06:19:48;28.50;;;23.15;;
40284;SDS011;25997;50.214;19.354;2022-10-22T06:22:52;30.23;;;27.20;;
40284;SDS011;25997;50.214;19.354;2022-10-22T06:25:55;32.38;;;26.63;;
40284;SDS011;25997;50.214;19.354;2022-10-22T06:28:58;26.55;;;23.75;;
40284;SDS011;25997;50.214;19.354;2022-10-22T06:32:00;33.33;;;27.60;;
40284;SDS011;25997;50.214;19.354;2022-10-22T06:35:03;28.05;;;24.88;;
40284;SDS011;25997;50.214;19.354;2022-10-22T06:38:08;30.85;;;23.92;;
40284;SDS011;25997;50.214;19.354;2022-10-22T06:41:11;34.88;;;25.40;;
40284;SDS011;25997;50.214;19.354;2022-10-22T06:44:15;30.70;;;25.58;;
40284;SDS011;25997;50.214;19.354;2022-10-22T06:47:18;28.10;;;24.15;;
40284;SDS011;25997;50.214;19.354;2022-10-22T06:50:21;27.60;;;24.65;;
40284;SDS011;25997;50.214;19.354;2022-10-22T06:53:25;26.88;;;22.23;;
40284;SDS011;25997;50.214;19.354;2022-10-22T06:56:27;29.02;;;23.95;;
40284;SDS011;25997;50.214;19.354;2022-10-22T06:59:30;24.50;;;22.10;;
40284;SDS011;25997;50.214;19.354;2022-10-22T07:02:33;26.33;;;23.63;;
40284;SDS011;25997;50.214;19.354;2022-10-22T07:05:36;27.15;;;24.25;;
40284;SDS011;25997;50.214;19.354;2022-10-22T07:08:40;27.70;;;23.08;;
40284;SDS011;25997;50.214;19.354;2022-10-22T07:11:43;32.17;;;23.58;;
40284;SDS011;25997;50.214;19.354;2022-10-22T07:14:47;35.15;;;31.45;;
40284;SDS011;25997;50.214;19.354;2022-10-22T07:17:50;26.83;;;23.70;;
40284;SDS011;25997;50.214;19.354;2022-10-22T07:20:52;26.98;;;22.70;;
40284;SDS011;25997;50.214;19.354;2022-10-22T07:23:56;23.52;;;20.40;;
40284;SDS011;25997;50.214;19.354;2022-10-22T07:26:59;24.73;;;19.02;;
40284;SDS011;25997;50.214;19.354;2022-10-22T07:30:02;22.13;;;17.27;;
40284;SDS011;25997;50.214;19.354;2022-10-22T07:33:06;22.60;;;19.55;;
40284;SDS011;25997;50.214;19.354;2022-10-22T07:36:09;28.85;;;25.08;;
40284;SDS011;25997;50.214;19.354;2022-10-22T07:39:23;28.38;;;23.05;;
40284;SDS011;25997;50.214;19.354;2022-10-22T07:42:25;43.38;;;32.92;;
40284;SDS011;25997;50.214;19.354;2022-10-22T07:45:28;37.45;;;31.35;;
40284;SDS011;25997;50.214;19.354;2022-10-22T07:48:30;34.03;;;27.17;;
40284;SDS011;25997;50.214;19.354;2022-10-22T07:51:33;30.67;;;25.75;;
40284;SDS011;25997;50.214;19.354;2022-10-22T07:54:37;25.73;;;23.00;;
40284;SDS011;25997;50.214;19.354;2022-10-22T07:57:39;38.20;;;31.95;;
40284;SDS011;25997;50.214;19.354;2022-10-22T08:00:42;23.95;;;21.45;;
40284;SDS011;25997;50.214;19.354;2022-10-22T08:03:44;28.17;;;21.77;;
40284;SDS011;25997;50.214;19.354;2022-10-22T08:06:48;24.73;;;19.60;;
40284;SDS011;25997;50.214;19.354;2022-10-22T08:09:52;26.90;;;24.13;;
40284;SDS011;25997;50.214;19.354;2022-10-22T08:12:55;27.70;;;22.88;;
40284;SDS011;25997;50.214;19.354;2022-10-22T08:15:58;25.05;;;18.85;;
40284;SDS011;25997;50.214;19.354;2022-10-22T08:19:01;23.88;;;18.45;;
40284;SDS011;25997;50.214;19.354;2022-10-22T08:22:03;20.75;;;18.55;;
40284;SDS011;25997;50.214;19.354;2022-10-22T08:25:07;23.58;;;18.60;;
40284;SDS011;25997;50.214;19.354;2022-10-22T08:28:10;23.00;;;20.38;;
40284;SDS011;25997;50.214;19.354;2022-10-22T08:31:13;25.13;;;20.88;;
40284;SDS011;25997;50.214;19.354;2022-10-22T08:34:15;27.55;;;23.85;;
40284;SDS011;25997;50.214;19.354;2022-10-22T08:37:18;25.20;;;21.95;;
40284;SDS011;25997;50.214;19.354;2022-10-22T08:40:22;32.10;;;27.33;;
40284;SDS011;25997;50.214;19.354;2022-10-22T08:43:40;28.40;;;24.20;;
40284;SDS011;25997;50.214;19.354;2022-10-22T08:50:34;42.85;;;37.13;;
40284;SDS011;25997;50.214;19.354;2022-10-22T08:53:40;32.72;;;29.40;;
40284;SDS011;25997;50.214;19.354;2022-10-22T08:56:54;32.17;;;26.92;;
40284;SDS011;25997;50.214;19.354;2022-10-22T09:00:09;22.13;;;18.15;;
40284;SDS011;25997;50.214;19.354;2022-10-22T09:03:22;24.45;;;20.45;;
40284;SDS011;25997;50.214;19.354;2022-10-22T09:06:36;24.33;;;20.85;;
40284;SDS011;25997;50.214;19.354;2022-10-22T09:09:41;22.30;;;17.58;;
40284;SDS011;25997;50.214;19.354;2022-10-22T09:12:51;26.03;;;18.20;;
40284;SDS011;25997;50.214;19.354;2022-10-22T09:15:55;22.77;;;17.77;;
40284;SDS011;25997;50.214;19.354;2022-10-22T09:19:03;24.20;;;19.42;;
40284;SDS011;25997;50.214;19.354;2022-10-22T09:22:18;22.52;;;19.17;;
40284;SDS011;25997;50.214;19.354;2022-10-22T09:25:31;20.75;;;17.58;;
40284;SDS011;25997;50.214;19.354;2022-10-22T09:28:39;24.80;;;18.10;;
40284;SDS011;25997;50.214;19.354;2022-10-22T09:31:41;25.80;;;19.30;;
40284;SDS011;25997;50.214;19.354;2022-10-22T09:34:45;21.02;;;18.88;;
40284;SDS011;25997;50.214;19.354;2022-10-22T09:37:48;20.70;;;18.48;;
40284;SDS011;25997;50.214;19.354;2022-10-22T09:40:53;27.88;;;20.52;;
40284;SDS011;25997;50.214;19.354;2022-10-22T09:43:59;22.60;;;17.52;;
40284;SDS011;25997;50.214;19.354;2022-10-22T09:47:02;27.17;;;19.77;;
40284;SDS011;25997;50.214;19.354;2022-10-22T09:50:11;22.58;;;20.15;;
40284;SDS011;25997;50.214;19.354;2022-10-22T09:53:24;22.65;;;20.38;;
40284;SDS011;25997;50.214;19.354;2022-10-22T09:56:32;27.20;;;20.88;;
40284;SDS011;25997;50.214;19.354;2022-10-22T09:59:38;23.80;;;21.40;;
40284;SDS011;25997;50.214;19.354;2022-10-22T10:02:43;26.30;;;20.02;;
40284;SDS011;25997;50.214;19.354;2022-10-22T10:05:46;23.33;;;20.83;;
40284;SDS011;25997;50.214;19.354;2022-10-22T10:08:50;24.98;;;20.60;;
40284;SDS011;25997;50.214;19.354;2022-10-22T10:11:54;26.65;;;22.95;;
40284;SDS011;25997;50.214;19.354;2022-10-22T10:15:11;23.58;;;21.08;;
40284;SDS011;25997;50.214;19.354;2022-10-22T10:18:24;26.65;;;23.80;;
40284;SDS011;25997;50.214;19.354;2022-10-22T10:21:43;26.15;;;22.02;;
40284;SDS011;25997;50.214;19.354;2022-10-22T10:25:00;30.40;;;22.42;;
40284;SDS011;25997;50.214;19.354;2022-10-22T10:31:42;32.30;;;28.90;;
40284;SDS011;25997;50.214;19.354;2022-10-22T10:34:55;35.28;;;31.45;;
40284;SDS011;25997;50.214;19.354;2022-10-22T10:38:15;32.75;;;29.35;;
40284;SDS011;25997;50.214;19.354;2022-10-22T10:41:37;33.30;;;29.70;;
40284;SDS011;25997;50.214;19.354;2022-10-22T10:44:48;48.15;;;40.30;;
40284;SDS011;25997;50.214;19.354;2022-10-22T10:48:11;53.45;;;48.08;;
40284;SDS011;25997;50.214;19.354;2022-10-22T10:51:34;37.25;;;33.50;;
40284;SDS011;25997;50.214;19.354;2022-10-22T10:54:43;32.22;;;28.73;;
40284;SDS011;25997;50.214;19.354;2022-10-22T10:57:54;35.88;;;28.75;;
40284;SDS011;25997;50.214;19.354;2022-10-22T11:01:11;30.30;;;27.08;;
40284;SDS011;25997;50.214;19.354;2022-10-22T11:04:26;30.25;;;26.95;;
40284;SDS011;25997;50.214;19.354;2022-10-22T11:07:44;29.08;;;26.25;;
40284;SDS011;25997;50.214;19.354;2022-10-22T11:10:50;33.20;;;29.65;;
40284;SDS011;25997;50.214;19.354;2022-10-22T11:13:56;31.25;;;26.52;;
40284;SDS011;25997;50.214;19.354;2022-10-22T11:17:05;30.08;;;26.92;;
40284;SDS011;25997;50.214;19.354;2022-10-22T11:20:17;28.25;;;23.90;;
40284;SDS011;25997;50.214;19.354;2022-10-22T11:23:25;30.42;;;23.92;;
40284;SDS011;25997;50.214;19.354;2022-10-22T11:26:35;34.75;;;31.13;;
40284;SDS011;25997;50.214;19.354;2022-10-22T11:29:43;60.08;;;53.78;;
40284;SDS011;25997;50.214;19.354;2022-10-22T11:32:52;53.42;;;43.53;;
40284;SDS011;25997;50.214;19.354;2022-10-22T11:35:58;42.42;;;35.83;;
40284;SDS011;25997;50.214;19.354;2022-10-22T11:39:03;34.25;;;28.75;;
40284;SDS011;25997;50.214;19.354;2022-10-22T11:42:08;32.63;;;29.45;;
40284;SDS011;25997;50.214;19.354;2022-10-22T11:45:26;34.55;;;31.25;;
40284;SDS011;25997;50.214;19.354;2022-10-22T11:48:34;31.10;;;26.98;;
40284;SDS011;25997;50.214;19.354;2022-10-22T11:51:40;29.25;;;25.13;;
40284;SDS011;25997;50.214;19.354;2022-10-22T11:54:44;31.45;;;28.05;;
40284;SDS011;25997;50.214;19.354;2022-10-22T11:57:46;36.08;;;32.00;;
40284;SDS011;25997;50.214;19.354;2022-10-22T12:00:49;44.88;;;34.80;;
40284;SDS011;25997;50.214;19.354;2022-10-22T12:03:52;46.63;;;41.63;;
40284;SDS011;25997;50.214;19.354;2022-10-22T12:07:30;49.90;;;44.38;;
40284;SDS011;25997;50.214;19.354;2022-10-22T12:10:35;51.15;;;42.78;;
40284;SDS011;25997;50.214;19.354;2022-10-22T12:14:01;44.67;;;38.42;;
40284;SDS011;25997;50.214;19.354;2022-10-22T12:17:14;52.40;;;45.17;;
40284;SDS011;25997;50.214;19.354;2022-10-22T12:20:18;46.80;;;39.75;;
40284;SDS011;25997;50.214;19.354;2022-10-22T12:23:29;35.65;;;30.95;;
40284;SDS011;25997;50.214;19.354;2022-10-22T12:26:35;33.58;;;27.10;;
40284;SDS011;25997;50.214;19.354;2022-10-22T12:29:38;31.60;;;28.40;;
40284;SDS011;25997;50.214;19.354;2022-10-22T12:32:41;30.15;;;26.23;;
40284;SDS011;25997;50.214;19.354;2022-10-22T12:35:43;28.23;;;25.25;;
40284;SDS011;25997;50.214;19.354;2022-10-22T12:38:50;29.35;;;26.23;;
40284;SDS011;25997;50.214;19.354;2022-10-22T12:41:52;32.25;;;26.42;;
40284;SDS011;25997;50.214;19.354;2022-10-22T12:44:55;27.67;;;23.35;;
40284;SDS011;25997;50.214;19.354;2022-10-22T12:47:58;27.40;;;24.50;;
40284;SDS011;25997;50.214;19.354;2022-10-22T12:51:02;29.35;;;26.27;;
40284;SDS011;25997;50.214;19.354;2022-10-22T12:54:09;27.83;;;25.02;;
40284;SDS011;25997;50.214;19.354;2022-10-22T12:57:20;25.05;;;22.40;;
40284;SDS011;25997;50.214;19.354;2022-10-22T13:00:24;26.10;;;23.45;;
40284;SDS011;25997;50.214;19.354;2022-10-22T13:03:31;27.20;;;24.60;;
40284;SDS011;25997;50.214;19.354;2022-10-22T13:06:35;25.85;;;23.25;;
40284;SDS011;25997;50.214;19.354;2022-10-22T13:09:39;27.90;;;23.42;;
40284;SDS011;25997;50.214;19.354;2022-10-22T13:12:43;30.80;;;27.60;;
40284;SDS011;25997;50.214;19.354;2022-10-22T13:15:51;28.55;;;25.58;;
40284;SDS011;25997;50.214;19.354;2022-10-22T13:18:53;30.63;;;27.42;;
40284;SDS011;25997;50.214;19.354;2022-10-22T13:21:56;34.30;;;27.55;;
40284;SDS011;25997;50.214;19.354;2022-10-22T13:25:03;25.75;;;22.15;;
40284;SDS011;25997;50.214;19.354;2022-10-22T13:28:20;28.58;;;24.60;;
40284;SDS011;25997;50.214;19.354;2022-10-22T13:31:25;38.95;;;34.03;;
40284;SDS011;25997;50.214;19.354;2022-10-22T13:34:31;58.58;;;52.25;;
40284;SDS011;25997;50.214;19.354;2022-10-22T13:37:35;68.20;;;60.85;;
40284;SDS011;25997;50.214;19.354;2022-10-22T13:40:39;41.17;;;36.70;;
40284;SDS011;25997;50.214;19.354;2022-10-22T13:43:42;26.27;;;23.58;;
40284;SDS011;25997;50.214;19.354;2022-10-22T13:46:44;28.90;;;25.02;;
40284;SDS011;25997;50.214;19.354;2022-10-22T13:49:47;24.52;;;21.88;;
40284;SDS011;25997;50.214;19.354;2022-10-22T13:52:50;31.80;;;28.35;;
40284;SDS011;25997;50.214;19.354;2022-10-22T13:55:56;33.42;;;27.50;;
40284;SDS011;25997;50.214;19.354;2022-10-22T13:58:58;27.10;;;24.27;;
40284;SDS011;25997;50.214;19.354;2022-10-22T14:02:01;25.38;;;22.75;;
40284;SDS011;25997;50.214;19.354;2022-10-22T14:05:06;28.15;;;24.00;;
40284;SDS011;25997;50.214;19.354;2022-10-22T14:08:09;24.10;;;18.45;;
40284;SDS011;25997;50.214;19.354;2022-10-22T14:11:15;23.25;;;19.10;;
40284;SDS011;25997;50.214;19.354;2022-10-22T14:14:17;28.55;;;21.38;;
40284;SDS011;25997;50.214;19.354;2022-10-22T14:17:20;21.48;;;18.00;;
40284;SDS011;25997;50.214;19.354;2022-10-22T14:20:23;25.90;;;23.23;;
40284;SDS011;25997;50.214;19.354;2022-10-22T14:23:28;23.65;;;21.20;;
40284;SDS011;25997;50.214;19.354;2022-10-22T14:26:34;30.50;;;24.73;;
40284;SDS011;25997;50.214;19.354;2022-10-22T14:29:37;28.67;;;22.30;;
40284;SDS011;25997;50.214;19.354;2022-10-22T14:32:39;25.00;;;21.75;;
40284;SDS011;25997;50.214;19.354;2022-10-22T14:35:42;32.00;;;28.63;;
40284;SDS011;25997;50.214;19.354;2022-10-22T14:38:46;30.00;;;24.05;;
40284;SDS011;25997;50.214;19.354;2022-10-22T14:41:50;30.33;;;24.30;;
40284;SDS011;25997;50.214;19.354;2022-10-22T14:44:53;45.13;;;28.08;;
40284;SDS011;25997;50.214;19.354;2022-10-22T14:47:55;28.25;;;25.30;;
40284;SDS011;25997;50.214;19.354;2022-10-22T14:50:58;29.60;;;26.58;;
40284;SDS011;25997;50.214;19.354;2022-10-22T14:54:00;35.45;;;32.05;;
40284;SDS011;25997;50.214;19.354;2022-10-22T14:57:04;31.75;;;28.33;;
40284;SDS011;25997;50.214;19.354;2022-10-22T15:00:09;36.17;;;32.30;;
40284;SDS011;25997;50.214;19.354;2022-10-22T15:03:14;34.10;;;30.30;;
40284;SDS011;25997;50.214;19.354;2022-10-22T15:06:17;35.53;;;31.83;;
40284;SDS011;25997;50.214;19.354;2022-10-22T15:09:19;32.45;;;29.00;;
40284;SDS011;25997;50.214;19.354;2022-10-22T15:12:23;32.25;;;28.25;;
40284;SDS011;25997;50.214;19.354;2022-10-22T15:15:27;33.92;;;30.05;;
40284;SDS011;25997;50.214;19.354;2022-10-22T15:18:30;32.30;;;28.90;;
40284;SDS011;25997;50.214;19.354;2022-10-22T15:21:32;32.47;;;29.10;;
40284;SDS011;25997;50.214;19.354;2022-10-22T15:24:35;35.75;;;29.80;;
40284;SDS011;25997;50.214;19.354;2022-10-22T15:27:39;30.80;;;27.67;;
40284;SDS011;25997;50.214;19.354;2022-10-22T15:30:42;36.55;;;31.88;;
40284;SDS011;25997;50.214;19.354;2022-10-22T15:33:44;32.30;;;29.05;;
40284;SDS011;25997;50.214;19.354;2022-10-22T15:36:47;31.63;;;28.33;;
40284;SDS011;25997;50.214;19.354;2022-10-22T15:39:50;30.20;;;27.00;;
40284;SDS011;25997;50.214;19.354;2022-10-22T15:42:54;36.83;;;32.53;;
40284;SDS011;25997;50.214;19.354;2022-10-22T15:46:06;30.40;;;27.00;;
40284;SDS011;25997;50.214;19.354;2022-10-22T15:49:11;32.90;;;29.13;;
40284;SDS011;25997;50.214;19.354;2022-10-22T15:52:13;33.88;;;28.98;;
40284;SDS011;25997;50.214;19.354;2022-10-22T15:55:16;31.10;;;27.83;;
40284;SDS011;25997;50.214;19.354;2022-10-22T15:58:20;32.42;;;29.08;;
40284;SDS011;25997;50.214;19.354;2022-10-22T16:01:23;37.55;;;32.65;;
40284;SDS011;25997;50.214;19.354;2022-10-22T16:04:26;36.47;;;32.75;;
40284;SDS011;25997;50.214;19.354;2022-10-22T16:07:29;39.65;;;34.00;;
40284;SDS011;25997;50.214;19.354;2022-10-22T16:10:32;33.85;;;30.35;;
40284;SDS011;25997;50.214;19.354;2022-10-22T16:13:36;32.92;;;29.50;;
40284;SDS011;25997;50.214;19.354;2022-10-22T16:16:40;35.35;;;31.65;;
40284;SDS011;25997;50.214;19.354;2022-10-22T16:19:44;38.60;;;34.45;;
40284;SDS011;25997;50.214;19.354;2022-10-22T16:22:48;36.00;;;32.40;;
40284;SDS011;25997;50.214;19.354;2022-10-22T16:25:51;38.38;;;34.05;;
40284;SDS011;25997;50.214;19.354;2022-10-22T16:28:55;37.33;;;33.45;;
40284;SDS011;25997;50.214;19.354;2022-10-22T16:31:59;37.17;;;33.13;;
40284;SDS011;25997;50.214;19.354;2022-10-22T16:35:01;32.78;;;29.40;;
40284;SDS011;25997;50.214;19.354;2022-10-22T16:38:03;38.97;;;35.08;;
40284;SDS011;25997;50.214;19.354;2022-10-22T16:41:07;35.58;;;31.95;;
40284;SDS011;25997;50.214;19.354;2022-10-22T16:44:12;38.55;;;32.85;;
40284;SDS011;25997;50.214;19.354;2022-10-22T16:47:15;44.83;;;40.05;;
40284;SDS011;25997;50.214;19.354;2022-10-22T16:50:17;44.45;;;39.65;;
40284;SDS011;25997;50.214;19.354;2022-10-22T16:53:20;47.00;;;39.95;;
40284;SDS011;25997;50.214;19.354;2022-10-22T16:56:23;44.92;;;40.22;;
40284;SDS011;25997;50.214;19.354;2022-10-22T16:59:28;51.95;;;46.63;;
40284;SDS011;25997;50.214;19.354;2022-10-22T17:02:30;39.10;;;35.17;;
40284;SDS011;25997;50.214;19.354;2022-10-22T17:05:34;43.72;;;39.20;;
40284;SDS011;25997;50.214;19.354;2022-10-22T17:08:37;44.63;;;39.92;;
40284;SDS011;25997;50.214;19.354;2022-10-22T17:11:41;47.95;;;43.25;;
40284;SDS011;25997;50.214;19.354;2022-10-22T17:14:45;45.03;;;40.25;;
40284;SDS011;25997;50.214;19.354;2022-10-22T17:17:47;40.83;;;36.63;;
40284;SDS011;25997;50.214;19.354;2022-10-22T17:20:53;50.53;;;44.75;;
40284;SDS011;25997;50.214;19.354;2022-10-22T17:23:57;49.13;;;43.78;;
40284;SDS011;25997;50.214;19.354;2022-10-22T17:26:59;46.40;;;41.45;;
40284;SDS011;25997;50.214;19.354;2022-10-22T17:30:05;49.75;;;43.30;;
40284;SDS011;25997;50.214;19.354;2022-10-22T17:33:08;47.05;;;41.28;;
40284;SDS011;25997;50.214;19.354;2022-10-22T17:36:11;48.63;;;43.42;;
40284;SDS011;25997;50.214;19.354;2022-10-22T17:39:15;49.42;;;44.13;;
40284;SDS011;25997;50.214;19.354;2022-10-22T17:42:19;52.03;;;46.35;;
40284;SDS011;25997;50.214;19.354;2022-10-22T17:45:23;50.03;;;44.35;;
40284;SDS011;25997;50.214;19.354;2022-10-22T17:48:25;52.00;;;46.00;;
40284;SDS011;25997;50.214;19.354;2022-10-22T17:51:28;44.42;;;39.55;;
40284;SDS011;25997;50.214;19.354;2022-10-22T17:54:31;46.67;;;41.42;;
40284;SDS011;25997;50.214;19.354;2022-10-22T17:57:34;43.25;;;38.55;;
40284;SDS011;25997;50.214;19.354;2022-10-22T18:00:38;46.55;;;41.63;;